createdAt,value
2018-03-15T00:00:57.095Z,9.00
2018-03-15T00:01:57.176Z,8.80
2018-03-15T00:02:57.151Z,8.10
2018-03-15T00:03:57.182Z,8.30
2018-03-15T00:04:57.212Z,8.80
2018-03-15T00:05:57.239Z,9.40
2018-03-15T00:06:57.268Z,9.70
2018-03-15T00:07:57.298Z,8.40
2018-03-15T00:08:57.329Z,9.40
2018-03-15T00:09:57.355Z,8.60
2018-03-15T00:10:57.383Z,8.70
2018-03-15T00:11:57.411Z,8.60
2018-03-15T00:12:57.442Z,9.50
2018-03-15T00:13:57.470Z,8.70
2018-03-15T00:14:57.500Z,9.20
2018-03-15T00:15:57.528Z,9.50
2018-03-15T00:16:57.556Z,8.40
2018-03-15T00:17:57.585Z,8.80
2018-03-15T00:18:57.618Z,8.40
2018-03-15T00:19:57.642Z,8.80
2018-03-15T00:20:57.671Z,9.40
2018-03-15T00:21:57.699Z,9.00
2018-03-15T00:22:57.729Z,9.80
2018-03-15T00:23:57.757Z,9.30
2018-03-15T00:24:57.787Z,9.20
2018-03-15T00:25:57.815Z,9.10
2018-03-15T00:26:57.845Z,8.40
2018-03-15T00:27:57.873Z,9.30
2018-03-15T00:28:57.901Z,9.70
2018-03-15T00:29:57.933Z,8.70
2018-03-15T00:30:57.958Z,9.40
2018-03-15T00:31:57.987Z,9.20
2018-03-15T00:32:58.016Z,9.40
2018-03-15T00:33:58.044Z,11.50
2018-03-15T00:34:58.073Z,10.90
2018-03-15T00:35:58.102Z,9.20
2018-03-15T00:36:58.130Z,9.90
2018-03-15T00:37:58.159Z,9.00
2018-03-15T00:38:58.187Z,9.40
2018-03-15T00:39:58.219Z,9.00
2018-03-15T00:40:58.244Z,8.80
2018-03-15T00:41:58.272Z,8.80
2018-03-15T00:42:58.302Z,8.70
2018-03-15T00:43:58.330Z,9.30
2018-03-15T00:44:58.359Z,9.20
2018-03-15T00:45:58.388Z,8.80
2018-03-15T00:46:58.416Z,8.50
2018-03-15T00:47:58.445Z,9.10
2018-03-15T00:48:58.473Z,9.10
2018-03-15T00:49:58.501Z,8.20
2018-03-15T00:50:58.530Z,8.20
2018-03-15T00:51:58.559Z,13.20
2018-03-15T00:52:58.587Z,9.10
2018-03-15T00:53:58.616Z,11.20
2018-03-15T00:54:58.644Z,8.70
2018-03-15T00:55:58.676Z,10.80
2018-03-15T00:56:58.701Z,9.80
2018-03-15T00:57:58.730Z,9.40
2018-03-15T00:58:58.757Z,9.90
2018-03-15T00:59:58.786Z,10.10
2018-03-15T01:00:58.815Z,9.60
2018-03-15T01:01:58.842Z,9.80
2018-03-15T01:02:58.877Z,13.70
2018-03-15T01:03:58.900Z,11.10
2018-03-15T01:04:58.929Z,9.30
2018-03-15T01:05:58.956Z,9.90
2018-03-15T01:06:58.984Z,9.70
2018-03-15T01:07:59.014Z,10.20
2018-03-15T01:08:59.042Z,14.70
2018-03-15T01:09:59.070Z,9.20
2018-03-15T01:10:59.099Z,10.90
2018-03-15T01:11:59.127Z,8.90
2018-03-15T01:12:59.156Z,9.50
2018-03-15T01:13:59.184Z,9.80
2018-03-15T01:14:59.212Z,9.60
2018-03-15T01:15:59.241Z,9.50
2018-03-15T01:16:59.269Z,9.40
2018-03-15T01:17:59.299Z,9.20
2018-03-15T01:18:59.326Z,8.60
2018-03-15T01:19:59.355Z,11.90
2018-03-15T01:20:59.384Z,10.50
2018-03-15T01:21:59.411Z,9.10
2018-03-15T01:22:59.440Z,10.80
2018-03-15T01:23:59.473Z,9.90
2018-03-15T01:24:59.496Z,11.70
2018-03-15T01:25:59.524Z,11.60
2018-03-15T01:26:59.553Z,10.70
2018-03-15T01:27:59.582Z,10.50
2018-03-15T01:28:59.666Z,11.50
2018-03-15T01:29:59.641Z,9.60
2018-03-15T01:30:59.667Z,13.90
2018-03-15T01:31:59.694Z,9.70
2018-03-15T01:32:59.724Z,9.00
2018-03-15T01:33:59.752Z,9.80
2018-03-15T01:34:59.779Z,10.70
2018-03-15T01:35:59.827Z,9.90
2018-03-15T01:36:59.839Z,10.60
2018-03-15T01:37:59.864Z,13.50
2018-03-15T01:38:59.893Z,11.50
2018-03-15T01:39:59.922Z,8.60
2018-03-15T01:40:59.951Z,9.90
2018-03-15T01:41:59.978Z,10.30
2018-03-15T01:43:00.006Z,10.40
2018-03-15T01:44:00.035Z,9.90
2018-03-15T01:45:00.064Z,9.60
2018-03-15T01:46:00.092Z,10.90
2018-03-15T01:47:00.120Z,11.70
2018-03-15T01:48:00.148Z,9.80
2018-03-15T01:49:00.176Z,11.00
2018-03-15T01:50:00.203Z,13.10
2018-03-15T01:51:00.233Z,10.20
2018-03-15T01:52:00.262Z,10.40
2018-03-15T01:53:00.290Z,9.40
2018-03-15T01:54:00.316Z,10.40
2018-03-15T01:55:00.346Z,10.20
2018-03-15T01:56:00.374Z,10.80
2018-03-15T01:57:00.403Z,10.00
2018-03-15T01:58:00.433Z,9.30
2018-03-15T01:59:00.458Z,9.40
2018-03-15T02:00:00.487Z,10.90
2018-03-15T02:01:00.517Z,10.00
2018-03-15T02:02:00.543Z,12.10
2018-03-15T02:03:00.572Z,11.20
2018-03-15T02:04:00.601Z,12.00
2018-03-15T02:05:00.630Z,11.00
2018-03-15T02:06:00.662Z,11.40
2018-03-15T02:07:00.684Z,14.00
2018-03-15T02:08:00.714Z,10.50
2018-03-15T02:09:00.741Z,12.80
2018-03-15T02:10:00.770Z,11.30
2018-03-15T02:11:00.798Z,10.30
2018-03-15T02:12:00.846Z,12.60
2018-03-15T02:13:00.859Z,12.60
2018-03-15T02:14:00.882Z,10.60
2018-03-15T02:15:00.911Z,10.80
2018-03-15T02:16:00.939Z,11.10
2018-03-15T02:17:00.968Z,10.40
2018-03-15T02:18:00.995Z,11.30
2018-03-15T02:19:01.025Z,10.10
2018-03-15T02:20:01.056Z,11.80
2018-03-15T02:21:01.081Z,10.50
2018-03-15T02:22:01.162Z,11.80
2018-03-15T02:23:01.138Z,11.90
2018-03-15T02:24:01.169Z,10.90
2018-03-15T02:25:01.193Z,10.90
2018-03-15T02:26:01.221Z,10.50
2018-03-15T02:27:01.250Z,11.50
2018-03-15T02:28:01.278Z,11.10
2018-03-15T02:29:01.307Z,11.00
2018-03-15T02:30:01.337Z,11.20
2018-03-15T02:31:01.365Z,11.90
2018-03-15T02:32:01.393Z,11.70
2018-03-15T02:33:01.426Z,11.70
2018-03-15T02:34:01.448Z,12.00
2018-03-15T02:35:01.477Z,14.20
2018-03-15T02:36:01.506Z,11.80
2018-03-15T02:37:01.533Z,11.60
2018-03-15T02:38:01.561Z,11.80
2018-03-15T02:39:01.589Z,10.90
2018-03-15T02:40:01.616Z,12.10
2018-03-15T02:41:01.646Z,10.30
2018-03-15T02:42:01.674Z,12.00
2018-03-15T02:43:01.701Z,10.70
2018-03-15T02:44:01.732Z,10.30
2018-03-15T02:45:01.759Z,12.90
2018-03-15T02:46:01.786Z,15.00
2018-03-15T02:47:01.816Z,11.70
2018-03-15T02:48:01.847Z,11.60
2018-03-15T02:49:01.872Z,11.60
2018-03-15T02:50:01.905Z,11.00
2018-03-15T02:51:01.930Z,12.10
2018-03-15T02:52:01.955Z,11.10
2018-03-15T02:53:01.985Z,12.20
2018-03-15T02:54:02.033Z,11.60
2018-03-15T02:55:02.039Z,11.60
2018-03-15T02:56:02.069Z,13.40
2018-03-15T02:57:02.102Z,11.30
2018-03-15T02:58:02.123Z,12.00
2018-03-15T02:59:02.154Z,12.00
2018-03-15T03:00:02.181Z,13.90
2018-03-15T03:01:02.208Z,12.70
2018-03-15T03:02:02.246Z,10.90
2018-03-15T03:03:02.322Z,11.80
2018-03-15T03:04:02.296Z,12.10
2018-03-15T03:05:02.324Z,11.80
2018-03-15T03:06:02.347Z,13.30
2018-03-15T03:07:02.419Z,12.50
2018-03-15T03:08:02.406Z,12.60
2018-03-15T03:09:02.431Z,14.50
2018-03-15T03:10:02.458Z,11.70
2018-03-15T03:11:02.486Z,15.60
2018-03-15T03:12:02.513Z,15.20
2018-03-15T03:13:02.546Z,17.00
2018-03-15T03:14:02.577Z,13.00
2018-03-15T03:15:02.598Z,12.30
2018-03-15T03:16:02.626Z,13.80
2018-03-15T03:17:02.654Z,12.30
2018-03-15T03:18:02.681Z,11.30
2018-03-15T03:19:02.713Z,13.90
2018-03-15T03:20:02.736Z,11.10
2018-03-15T03:21:02.765Z,15.00
2018-03-15T03:22:02.797Z,12.50
2018-03-15T03:23:02.820Z,14.80
2018-03-15T03:24:02.849Z,13.20
2018-03-15T03:25:02.877Z,11.30
2018-03-15T03:26:02.903Z,11.80
2018-03-15T03:27:02.934Z,16.80
2018-03-15T03:28:02.959Z,15.10
2018-03-15T03:29:02.989Z,13.40
2018-03-15T03:30:03.016Z,12.80
2018-03-15T03:31:03.043Z,13.30
2018-03-15T03:32:03.071Z,16.00
2018-03-15T03:33:03.099Z,12.10
2018-03-15T03:34:03.125Z,12.70
2018-03-15T03:35:03.154Z,13.50
2018-03-15T03:36:03.182Z,15.20
2018-03-15T03:37:03.210Z,14.80
2018-03-15T03:38:03.237Z,12.50
2018-03-15T03:39:03.264Z,15.30
2018-03-15T03:40:03.293Z,13.20
2018-03-15T03:41:03.321Z,12.70
2018-03-15T03:42:03.347Z,13.50
2018-03-15T03:43:03.375Z,15.40
2018-03-15T03:44:03.410Z,12.50
2018-03-15T03:45:03.432Z,12.60
2018-03-15T03:46:03.459Z,13.30
2018-03-15T03:47:03.488Z,13.10
2018-03-15T03:48:03.515Z,11.90
2018-03-15T03:49:03.545Z,13.00
2018-03-15T03:50:03.571Z,13.20
2018-03-15T03:51:03.599Z,15.40
2018-03-15T03:52:03.626Z,12.80
2018-03-15T03:53:03.655Z,17.60
2018-03-15T03:54:03.680Z,15.40
2018-03-15T03:55:03.711Z,14.60
2018-03-15T03:56:03.738Z,15.10
2018-03-15T03:57:03.768Z,14.90
2018-03-15T03:58:03.792Z,15.90
2018-03-15T03:59:03.820Z,15.70
2018-03-15T04:00:03.850Z,17.90
2018-03-15T04:01:03.880Z,21.60
2018-03-15T04:02:03.903Z,15.80
2018-03-15T04:03:03.932Z,19.00
2018-03-15T04:04:03.960Z,18.00
2018-03-15T04:05:03.988Z,16.80
2018-03-15T04:06:04.015Z,16.40
2018-03-15T04:07:04.044Z,16.00
2018-03-15T04:08:04.072Z,17.40
2018-03-15T04:09:04.100Z,15.30
2018-03-15T04:10:04.129Z,18.30
2018-03-15T04:11:04.155Z,18.10
2018-03-15T04:12:04.182Z,16.60
2018-03-15T04:13:04.211Z,15.20
2018-03-15T04:14:04.244Z,17.00
2018-03-15T04:15:04.266Z,16.30
2018-03-15T04:16:04.294Z,22.00
2018-03-15T04:17:04.323Z,18.30
2018-03-15T04:18:04.350Z,16.30
2018-03-15T04:19:04.377Z,17.30
2018-03-15T04:20:04.406Z,15.60
2018-03-15T04:21:04.434Z,18.00
2018-03-15T04:22:04.462Z,19.20
2018-03-15T04:23:04.489Z,16.20
2018-03-15T04:24:04.516Z,17.00
2018-03-15T04:25:04.546Z,18.10
2018-03-15T04:26:04.572Z,16.80
2018-03-15T04:27:04.605Z,16.00
2018-03-15T04:28:04.629Z,16.10
2018-03-15T04:29:04.658Z,15.40
2018-03-15T04:30:04.684Z,19.20
2018-03-15T04:31:04.711Z,21.20
2018-03-15T04:32:04.749Z,17.10
2018-03-15T04:33:04.770Z,17.60
2018-03-15T04:34:04.796Z,18.60
2018-03-15T04:35:04.825Z,20.10
2018-03-15T04:36:04.853Z,18.20
2018-03-15T04:37:04.880Z,22.50
2018-03-15T04:38:04.908Z,17.00
2018-03-15T04:39:04.935Z,21.90
2018-03-15T04:40:04.964Z,18.30
2018-03-15T04:41:04.992Z,22.40
2018-03-15T04:42:05.019Z,19.10
2018-03-15T04:43:05.047Z,23.60
2018-03-15T04:44:05.075Z,21.00
2018-03-15T04:45:05.103Z,19.40
2018-03-15T04:46:05.130Z,14.60
2018-03-15T04:47:05.160Z,15.90
2018-03-15T04:48:05.190Z,20.00
2018-03-15T04:49:05.217Z,16.70
2018-03-15T04:50:05.243Z,17.60
2018-03-15T04:51:05.273Z,16.60
2018-03-15T04:52:05.300Z,17.70
2018-03-15T04:53:05.329Z,19.10
2018-03-15T04:54:05.356Z,18.80
2018-03-15T04:55:05.384Z,16.50
2018-03-15T04:56:05.412Z,16.50
2018-03-15T04:57:05.440Z,16.90
2018-03-15T04:58:05.467Z,17.00
2018-03-15T04:59:05.497Z,18.50
2018-03-15T05:00:05.524Z,20.40
2018-03-15T05:01:05.554Z,20.20
2018-03-15T05:02:05.582Z,20.80
2018-03-15T05:03:05.610Z,17.90
2018-03-15T05:04:05.638Z,22.20
2018-03-15T05:05:05.667Z,18.70
2018-03-15T05:06:05.692Z,18.00
2018-03-15T05:07:05.722Z,19.10
2018-03-15T05:08:05.749Z,21.40
2018-03-15T05:09:05.777Z,20.00
2018-03-15T05:10:05.806Z,20.00
2018-03-15T05:11:05.869Z,22.80
2018-03-15T05:12:05.862Z,26.50
2018-03-15T05:13:05.892Z,28.70
2018-03-15T05:14:05.918Z,26.30
2018-03-15T05:15:05.946Z,25.50
2018-03-15T05:16:05.974Z,27.80
2018-03-15T05:17:06.001Z,31.10
2018-03-15T05:18:06.030Z,36.30
2018-03-15T05:19:06.062Z,40.60
2018-03-15T05:20:06.087Z,33.60
2018-03-15T05:21:06.115Z,28.10
2018-03-15T05:22:06.143Z,27.30
2018-03-15T05:23:06.172Z,26.40
2018-03-15T05:24:06.200Z,28.50
2018-03-15T05:25:06.229Z,30.30
2018-03-15T05:26:06.254Z,38.60
2018-03-15T05:27:06.283Z,59.90
2018-03-15T05:28:06.311Z,54.90
2018-03-15T05:29:06.338Z,40.80
2018-03-15T05:30:06.367Z,34.60
2018-03-15T05:31:06.394Z,31.60
2018-03-15T05:32:06.421Z,31.80
2018-03-15T05:33:06.449Z,28.90
2018-03-15T05:34:06.478Z,30.00
2018-03-15T05:35:06.504Z,30.00
2018-03-15T05:36:06.533Z,35.90
2018-03-15T05:37:06.561Z,44.00
2018-03-15T05:38:06.588Z,39.40
2018-03-15T05:39:06.619Z,36.90
2018-03-15T05:40:06.644Z,26.60
2018-03-15T05:41:06.673Z,30.90
2018-03-15T05:42:06.699Z,30.00
2018-03-15T05:43:06.727Z,32.70
2018-03-15T05:44:06.755Z,25.80
2018-03-15T05:45:06.788Z,32.70
2018-03-15T05:46:06.811Z,28.40
2018-03-15T05:47:06.837Z,29.80
2018-03-15T05:48:06.866Z,27.40
2018-03-15T05:49:06.893Z,31.20
2018-03-15T05:50:06.921Z,33.00
2018-03-15T05:51:06.947Z,32.40
2018-03-15T05:52:06.976Z,32.80
2018-03-15T05:53:07.004Z,31.50
2018-03-15T05:54:07.031Z,31.10
2018-03-15T05:55:07.057Z,28.80
2018-03-15T05:56:07.085Z,31.70
2018-03-15T05:57:07.116Z,40.60
2018-03-15T05:58:07.139Z,31.10
2018-03-15T05:59:07.167Z,30.80
2018-03-15T06:00:07.196Z,35.00
2018-03-15T06:01:07.223Z,31.20
2018-03-15T06:02:07.249Z,31.20
2018-03-15T06:03:07.277Z,30.80
2018-03-15T06:04:07.304Z,30.10
2018-03-15T06:05:07.332Z,25.40
2018-03-15T06:06:07.359Z,30.40
2018-03-15T06:07:07.386Z,36.00
2018-03-15T06:08:07.417Z,33.30
2018-03-15T06:09:07.443Z,39.60
2018-03-15T06:10:07.469Z,37.60
2018-03-15T06:11:07.497Z,38.10
2018-03-15T06:12:07.525Z,33.90
2018-03-15T06:13:07.551Z,37.70
2018-03-15T06:14:07.580Z,39.40
2018-03-15T06:15:07.606Z,40.30
2018-03-15T06:16:07.635Z,32.80
2018-03-15T06:17:07.663Z,29.90
2018-03-15T06:18:07.690Z,40.70
2018-03-15T06:19:07.718Z,35.30
2018-03-15T06:20:07.746Z,33.30
2018-03-15T06:21:07.773Z,33.50
2018-03-15T06:22:07.800Z,34.10
2018-03-15T06:23:07.838Z,30.80
2018-03-15T06:24:07.857Z,35.10
2018-03-15T06:25:07.884Z,35.90
2018-03-15T06:26:07.911Z,30.20
2018-03-15T06:27:07.938Z,32.90
2018-03-15T06:28:07.966Z,32.80
2018-03-15T06:29:07.993Z,29.20
2018-03-15T06:30:08.023Z,33.40
2018-03-15T06:31:08.051Z,30.30
2018-03-15T06:32:08.077Z,35.80
2018-03-15T06:33:08.106Z,36.00
2018-03-15T06:34:08.131Z,31.70
2018-03-15T06:35:08.158Z,30.70
2018-03-15T06:36:08.186Z,32.50
2018-03-15T06:37:08.213Z,29.60
2018-03-15T06:38:08.240Z,30.60
2018-03-15T06:39:08.268Z,32.60
2018-03-15T06:40:08.295Z,33.20
2018-03-15T06:41:08.323Z,33.30
2018-03-15T06:42:08.350Z,32.90
2018-03-15T06:43:08.380Z,39.20
2018-03-15T06:44:08.406Z,34.50
2018-03-15T06:45:08.438Z,35.50
2018-03-15T06:46:08.460Z,35.00
2018-03-15T06:47:08.487Z,34.00
2018-03-15T06:48:08.515Z,37.00
2018-03-15T06:49:08.542Z,36.40
2018-03-15T06:50:08.569Z,46.70
2018-03-15T06:51:08.597Z,34.70
2018-03-15T06:52:08.662Z,33.80
2018-03-15T06:53:08.652Z,30.10
2018-03-15T06:54:08.713Z,33.20
2018-03-15T06:55:08.705Z,29.30
2018-03-15T06:56:08.734Z,30.30
2018-03-15T06:57:08.762Z,29.70
2018-03-15T06:58:08.789Z,31.30
2018-03-15T06:59:08.817Z,31.30
2018-03-15T07:00:08.845Z,29.60
2018-03-15T07:01:08.874Z,30.90
2018-03-15T07:02:08.900Z,33.40
2018-03-15T07:03:08.927Z,36.90
2018-03-15T07:04:08.955Z,34.60
2018-03-15T07:05:08.983Z,35.60
2018-03-15T07:06:09.010Z,36.40
2018-03-15T07:07:09.038Z,38.10
2018-03-15T07:08:09.066Z,33.90
2018-03-15T07:09:09.093Z,35.70
2018-03-15T07:10:09.130Z,34.40
2018-03-15T07:11:09.148Z,33.70
2018-03-15T07:12:09.180Z,29.40
2018-03-15T07:13:09.206Z,34.70
2018-03-15T07:14:09.231Z,31.70
2018-03-15T07:15:09.267Z,33.70
2018-03-15T07:16:09.288Z,34.30
2018-03-15T07:17:09.314Z,32.90
2018-03-15T07:18:09.344Z,34.70
2018-03-15T07:19:09.372Z,34.20
2018-03-15T07:20:09.399Z,34.30
2018-03-15T07:21:09.428Z,31.80
2018-03-15T07:22:09.456Z,40.30
2018-03-15T07:23:09.484Z,33.70
2018-03-15T07:24:09.512Z,32.30
2018-03-15T07:25:09.540Z,31.30
2018-03-15T07:26:09.568Z,37.10
2018-03-15T07:27:09.595Z,34.70
2018-03-15T07:28:09.624Z,35.80
2018-03-15T07:29:09.654Z,34.60
2018-03-15T07:30:09.680Z,30.60
2018-03-15T07:31:09.708Z,37.60
2018-03-15T07:32:09.739Z,32.70
2018-03-15T07:33:09.765Z,31.10
2018-03-15T07:34:09.797Z,32.80
2018-03-15T07:35:09.822Z,33.30
2018-03-15T07:36:09.850Z,36.60
2018-03-15T07:37:09.878Z,34.70
2018-03-15T07:38:09.906Z,32.10
2018-03-15T07:39:09.935Z,30.70
2018-03-15T07:40:09.963Z,29.50
2018-03-15T07:41:09.992Z,29.30
2018-03-15T07:42:10.019Z,32.60
2018-03-15T07:43:10.048Z,35.40
2018-03-15T07:44:10.077Z,41.60
2018-03-15T07:45:10.106Z,38.40
2018-03-15T07:46:10.134Z,34.30
2018-03-15T07:47:10.163Z,28.90
2018-03-15T07:48:10.197Z,31.70
2018-03-15T07:49:10.221Z,32.20
2018-03-15T07:50:10.253Z,36.90
2018-03-15T07:51:10.280Z,32.20
2018-03-15T07:52:10.307Z,32.50
2018-03-15T07:53:10.336Z,31.80
2018-03-15T07:54:10.363Z,29.20
2018-03-15T07:55:10.393Z,35.00
2018-03-15T07:56:10.422Z,30.40
2018-03-15T07:57:10.453Z,33.80
2018-03-15T07:58:10.481Z,32.30
2018-03-15T07:59:10.510Z,30.90
2018-03-15T08:00:10.538Z,35.50
2018-03-15T08:01:10.568Z,36.80
2018-03-15T08:02:10.598Z,35.10
2018-03-15T08:03:10.626Z,31.40
2018-03-15T08:04:10.658Z,31.40
2018-03-15T08:05:10.684Z,40.50
2018-03-15T08:06:10.711Z,34.60
2018-03-15T08:07:10.742Z,35.90
2018-03-15T08:08:10.771Z,31.80
2018-03-15T08:09:10.801Z,30.10
2018-03-15T08:10:10.830Z,33.70
2018-03-15T08:11:10.858Z,32.70
2018-03-15T08:12:10.888Z,33.40
2018-03-15T08:13:10.917Z,32.10
2018-03-15T08:14:10.946Z,30.70
2018-03-15T08:15:10.976Z,33.20
2018-03-15T08:16:11.005Z,32.30
2018-03-15T08:17:11.033Z,31.20
2018-03-15T08:18:11.062Z,32.60
2018-03-15T08:19:11.091Z,30.10
2018-03-15T08:20:11.121Z,34.30
2018-03-15T08:21:11.151Z,33.00
2018-03-15T08:22:11.179Z,35.40
2018-03-15T08:23:11.208Z,32.60
2018-03-15T08:24:11.239Z,32.80
2018-03-15T08:25:11.267Z,32.20
2018-03-15T08:26:11.295Z,35.20
2018-03-15T08:27:11.323Z,38.70
2018-03-15T08:28:11.354Z,36.80
2018-03-15T08:29:11.383Z,38.30
2018-03-15T08:30:11.412Z,46.50
2018-03-15T08:31:11.440Z,45.20
2018-03-15T08:32:11.476Z,45.90
2018-03-15T08:33:11.500Z,41.90
2018-03-15T08:34:11.531Z,43.60
2018-03-15T08:35:11.556Z,39.70
2018-03-15T08:36:11.586Z,39.90
2018-03-15T08:37:11.614Z,34.00
2018-03-15T08:38:11.643Z,41.40
2018-03-15T08:39:11.671Z,36.20
2018-03-15T08:40:11.700Z,37.40
2018-03-15T08:41:11.730Z,38.50
2018-03-15T08:42:11.758Z,42.70
2018-03-15T08:43:11.792Z,39.20
2018-03-15T08:44:11.815Z,40.60
2018-03-15T08:45:11.843Z,43.70
2018-03-15T08:46:11.876Z,37.40
2018-03-15T08:47:11.902Z,36.80
2018-03-15T08:48:11.931Z,36.70
2018-03-15T08:49:11.958Z,34.40
2018-03-15T08:50:11.987Z,40.30
2018-03-15T08:51:12.017Z,38.40
2018-03-15T08:52:12.045Z,39.90
2018-03-15T08:53:12.074Z,36.30
2018-03-15T08:54:12.103Z,37.90
2018-03-15T08:55:12.131Z,37.90
2018-03-15T08:56:12.161Z,38.70
2018-03-15T08:57:12.188Z,36.20
2018-03-15T08:58:12.218Z,37.90
2018-03-15T08:59:12.245Z,40.90
2018-03-15T09:00:12.284Z,37.70
2018-03-15T09:01:12.304Z,37.90
2018-03-15T09:02:12.334Z,37.00
2018-03-15T09:03:12.361Z,45.50
2018-03-15T09:04:12.390Z,41.40
2018-03-15T09:05:12.420Z,40.10
2018-03-15T09:06:12.448Z,44.10
2018-03-15T09:07:12.477Z,41.80
2018-03-15T09:08:12.562Z,46.70
2018-03-15T09:09:12.545Z,39.00
2018-03-15T09:10:12.561Z,39.00
2018-03-15T09:11:12.592Z,41.70
2018-03-15T09:12:12.620Z,42.30
2018-03-15T09:13:12.650Z,39.00
2018-03-15T09:14:12.678Z,42.10
2018-03-15T09:15:12.711Z,43.20
2018-03-15T09:16:12.871Z,40.80
2018-03-15T09:17:12.765Z,40.80
2018-03-15T09:18:12.833Z,40.00
2018-03-15T09:19:12.864Z,48.20
2018-03-15T09:20:12.852Z,39.40
2018-03-15T09:21:12.906Z,45.00
2018-03-15T09:22:12.910Z,40.20
2018-03-15T09:23:12.938Z,38.70
2018-03-15T09:24:12.973Z,41.50
2018-03-15T09:25:13.001Z,44.50
2018-03-15T09:26:13.025Z,36.50
2018-03-15T09:27:13.054Z,40.00
2018-03-15T09:28:13.082Z,42.10
2018-03-15T09:29:13.112Z,41.70
2018-03-15T09:30:13.141Z,41.80
2018-03-15T09:31:13.170Z,40.30
2018-03-15T09:32:13.199Z,39.90
2018-03-15T09:33:13.233Z,44.00
2018-03-15T09:34:13.256Z,40.50
2018-03-15T09:35:13.287Z,43.10
2018-03-15T09:36:13.316Z,44.10
2018-03-15T09:37:13.346Z,44.10
2018-03-15T09:38:13.374Z,42.70
2018-03-15T09:39:13.409Z,42.00
2018-03-15T09:40:13.437Z,39.80
2018-03-15T09:41:13.465Z,42.20
2018-03-15T09:42:13.492Z,38.80
2018-03-15T09:43:13.524Z,42.40
2018-03-15T09:44:13.554Z,36.10
2018-03-15T09:45:13.584Z,39.80
2018-03-15T09:46:13.645Z,43.70
2018-03-15T09:47:13.643Z,38.90
2018-03-15T09:48:13.679Z,39.70
2018-03-15T09:49:13.703Z,40.30
2018-03-15T09:50:13.733Z,41.10
2018-03-15T09:51:13.788Z,36.90
2018-03-15T09:52:13.792Z,36.40
2018-03-15T09:53:13.822Z,38.40
2018-03-15T09:54:13.851Z,39.60
2018-03-15T09:55:13.883Z,40.50
2018-03-15T09:56:13.911Z,36.80
2018-03-15T09:57:13.941Z,38.90
2018-03-15T09:58:13.971Z,43.30
2018-03-15T09:59:14.000Z,36.20
2018-03-15T10:00:14.030Z,41.20
2018-03-15T10:01:14.060Z,36.70
2018-03-15T10:02:14.090Z,50.20
2018-03-15T10:03:14.121Z,42.60
2018-03-15T10:04:14.150Z,41.70
2018-03-15T10:05:14.185Z,36.50
2018-03-15T10:06:14.209Z,44.10
2018-03-15T10:07:14.238Z,38.40
2018-03-15T10:08:14.269Z,42.20
2018-03-15T10:09:14.301Z,39.90
2018-03-15T10:10:14.328Z,39.90
2018-03-15T10:11:14.358Z,38.50
2018-03-15T10:12:14.388Z,38.50
2018-03-15T10:13:14.419Z,38.90
2018-03-15T10:14:14.447Z,39.10
2018-03-15T10:15:14.478Z,37.40
2018-03-15T10:16:14.507Z,43.90
2018-03-15T10:17:14.538Z,38.70
2018-03-15T10:18:14.566Z,35.00
2018-03-15T10:19:14.602Z,41.00
2018-03-15T10:20:14.627Z,36.10
2018-03-15T10:21:14.656Z,38.90
2018-03-15T10:22:14.715Z,39.30
2018-03-15T10:23:14.715Z,36.80
2018-03-15T10:24:14.746Z,38.00
2018-03-15T10:25:26.393Z,37.50
2018-03-15T10:26:14.804Z,36.80
2018-03-15T10:27:14.836Z,37.60
2018-03-15T10:28:14.866Z,33.70
2018-03-15T10:29:14.897Z,33.90
2018-03-15T10:30:14.925Z,39.00
2018-03-15T10:31:14.954Z,37.80
2018-03-15T10:32:14.986Z,35.50
2018-03-15T10:33:15.018Z,34.50
2018-03-15T10:34:15.048Z,39.20
2018-03-15T10:35:15.075Z,34.50
2018-03-15T10:36:15.105Z,37.80
2018-03-15T10:37:15.139Z,33.60
2018-03-15T10:38:15.165Z,33.30
2018-03-15T10:39:15.201Z,32.50
2018-03-15T10:40:15.224Z,37.70
2018-03-15T10:41:15.255Z,34.10
2018-03-15T10:42:15.289Z,39.40
2018-03-15T10:43:15.315Z,36.30
2018-03-15T10:44:15.346Z,34.60
2018-03-15T10:45:15.375Z,42.80
2018-03-15T10:46:15.407Z,32.40
2018-03-15T10:47:15.434Z,35.90
2018-03-15T10:48:15.464Z,39.80
2018-03-15T10:49:15.495Z,34.20
2018-03-15T10:50:15.525Z,36.70
2018-03-15T10:51:15.559Z,31.60
2018-03-15T10:52:15.584Z,31.20
2018-03-15T10:53:15.615Z,34.20
2018-03-15T10:54:15.644Z,34.40
2018-03-15T10:55:15.675Z,37.20
2018-03-15T10:56:15.705Z,35.60
2018-03-15T10:57:15.736Z,40.30
2018-03-15T10:58:15.766Z,31.20
2018-03-15T10:59:15.795Z,30.70
2018-03-15T11:00:15.823Z,27.20
2018-03-15T11:01:15.854Z,33.40
2018-03-15T11:02:15.884Z,33.60
2018-03-15T11:03:15.920Z,30.50
2018-03-15T11:04:15.945Z,32.20
2018-03-15T11:05:15.975Z,27.00
2018-03-15T11:06:16.007Z,28.80
2018-03-15T11:07:16.033Z,22.20
2018-03-15T11:08:16.066Z,22.50
2018-03-15T11:09:16.095Z,32.80
2018-03-15T11:10:16.124Z,28.40
2018-03-15T11:11:16.155Z,37.30
2018-03-15T11:12:16.186Z,35.60
2018-03-15T11:13:16.216Z,25.70
2018-03-15T11:14:16.246Z,26.40
2018-03-15T11:15:16.275Z,28.50
2018-03-15T11:16:16.305Z,26.70
2018-03-15T11:17:16.335Z,26.30
2018-03-15T11:18:16.368Z,29.40
2018-03-15T11:19:16.397Z,30.20
2018-03-15T11:20:16.426Z,28.10
2018-03-15T11:21:16.458Z,26.80
2018-03-15T11:22:16.486Z,28.60
2018-03-15T11:23:16.517Z,27.80
2018-03-15T11:24:16.548Z,28.60
2018-03-15T11:25:16.579Z,23.00
2018-03-15T11:26:16.608Z,31.60
2018-03-15T11:27:16.638Z,28.00
2018-03-15T11:28:16.669Z,33.80
2018-03-15T11:29:16.700Z,36.60
2018-03-15T11:30:16.729Z,28.40
2018-03-15T11:31:16.759Z,32.20
2018-03-15T11:32:16.790Z,28.30
2018-03-15T11:33:16.820Z,33.20
2018-03-15T11:34:16.849Z,32.60
2018-03-15T11:35:16.881Z,33.80
2018-03-15T11:36:16.911Z,36.90
2018-03-15T11:37:16.941Z,36.00
2018-03-15T11:38:16.969Z,34.60
2018-03-15T11:39:17.000Z,33.70
2018-03-15T11:40:17.031Z,29.60
2018-03-15T11:41:17.061Z,33.60
2018-03-15T11:42:17.091Z,34.70
2018-03-15T11:43:17.120Z,38.90
2018-03-15T11:44:17.151Z,36.50
2018-03-15T11:45:17.180Z,36.30
2018-03-15T11:46:17.213Z,37.80
2018-03-15T11:47:17.240Z,36.00
2018-03-15T11:48:17.270Z,47.50
2018-03-15T11:49:17.301Z,46.10
2018-03-15T11:50:17.327Z,44.20
2018-03-15T11:51:17.357Z,46.00
2018-03-15T11:52:17.389Z,42.60
2018-03-15T11:53:17.418Z,43.50
2018-03-15T11:54:17.447Z,47.00
2018-03-15T11:55:17.477Z,48.90
2018-03-15T11:56:17.506Z,42.80
2018-03-15T11:57:17.537Z,48.00
2018-03-15T11:58:17.565Z,44.20
2018-03-15T11:59:17.596Z,45.30
2018-03-15T12:00:17.628Z,46.30
2018-03-15T12:01:17.653Z,48.70
2018-03-15T12:02:17.682Z,42.20
2018-03-15T12:03:17.712Z,46.00
2018-03-15T12:04:17.740Z,46.50
2018-03-15T12:05:17.771Z,45.80
2018-03-15T12:06:17.800Z,42.70
2018-03-15T12:07:17.830Z,44.30
2018-03-15T12:08:17.863Z,44.50
2018-03-15T12:09:17.888Z,53.20
2018-03-15T12:10:17.917Z,50.40
2018-03-15T12:11:17.946Z,53.40
2018-03-15T12:12:17.975Z,48.40
2018-03-15T12:13:18.005Z,45.60
2018-03-15T12:14:18.033Z,45.10
2018-03-15T12:15:18.063Z,46.50
2018-03-15T12:16:18.093Z,46.70
2018-03-15T12:17:18.123Z,48.50
2018-03-15T12:18:18.150Z,46.20
2018-03-15T12:19:18.180Z,41.60
2018-03-15T12:20:18.209Z,45.40
2018-03-15T12:21:18.239Z,42.10
2018-03-15T12:22:18.268Z,54.70
2018-03-15T12:23:18.297Z,41.80
2018-03-15T12:24:18.327Z,45.40
2018-03-15T12:25:18.356Z,45.20
2018-03-15T12:26:18.396Z,41.70
2018-03-15T12:27:18.415Z,46.50
2018-03-15T12:28:18.444Z,44.50
2018-03-15T12:29:18.476Z,44.90
2018-03-15T12:30:18.503Z,43.50
2018-03-15T12:31:18.562Z,49.00
2018-03-15T12:32:18.562Z,50.90
2018-03-15T12:33:18.592Z,48.60
2018-03-15T12:34:18.620Z,43.70
2018-03-15T12:35:18.649Z,43.00
2018-03-15T12:36:18.681Z,47.00
2018-03-15T12:37:18.712Z,43.70
2018-03-15T12:38:18.741Z,42.90
2018-03-15T12:39:18.770Z,37.60
2018-03-15T12:40:18.800Z,39.80
2018-03-15T12:41:18.828Z,41.70
2018-03-15T12:42:18.858Z,41.80
2018-03-15T12:43:18.888Z,35.90
2018-03-15T12:44:18.918Z,37.30
2018-03-15T12:45:18.948Z,44.20
2018-03-15T12:46:18.977Z,44.20
2018-03-15T12:47:19.008Z,48.10
2018-03-15T12:48:19.038Z,42.90
2018-03-15T12:49:19.068Z,44.30
2018-03-15T12:50:19.098Z,45.20
2018-03-15T12:51:19.127Z,44.90
2018-03-15T12:52:19.158Z,40.40
2018-03-15T12:53:19.187Z,46.70
2018-03-15T12:54:19.216Z,42.60
2018-03-15T12:55:19.252Z,45.70
2018-03-15T12:56:19.277Z,45.70